sensor_id;sensor_type;location;lat;lon;timestamp;pressure;altitude;pressure_sealevel;temperature;humidity
63439;BME280;49567;48.958;8.294;2023-05-10T00:00:38;99793.72;;;16.75;80.91
63439;BME280;49567;48.958;8.294;2023-05-10T00:03:03;99786.81;;;16.78;80.72
63439;BME280;49567;48.958;8.294;2023-05-10T00:05:32;99795.53;;;16.80;80.18
63439;BME280;49567;48.958;8.294;2023-05-10T00:07:57;99788.13;;;16.80;79.98
63439;BME280;49567;48.958;8.294;2023-05-10T00:10:22;99793.28;;;16.68;80.65
63439;BME280;49567;48.958;8.294;2023-05-10T00:12:47;99794.94;;;16.69;80.85
63439;BME280;49567;48.958;8.294;2023-05-10T00:15:13;99791.06;;;16.70;80.79
63439;BME280;49567;48.958;8.294;2023-05-10T00:17:38;99794.13;;;16.69;80.40
63439;BME280;49567;48.958;8.294;2023-05-10T00:20:04;99795.97;;;16.54;81.16
63439;BME280;49567;48.958;8.294;2023-05-10T00:22:30;99793.41;;;16.44;81.54
63439;BME280;49567;48.958;8.294;2023-05-10T00:24:55;99797.66;;;16.50;81.63
63439;BME280;49567;48.958;8.294;2023-05-10T00:27:21;99798.34;;;16.61;80.95
63439;BME280;49567;48.958;8.294;2023-05-10T00:29:46;99797.84;;;16.59;80.73
63439;BME280;49567;48.958;8.294;2023-05-10T00:32:11;99791.78;;;16.43;81.35
63439;BME280;49567;48.958;8.294;2023-05-10T00:34:36;99800.63;;;16.22;82.21
63439;BME280;49567;48.958;8.294;2023-05-10T00:37:02;99806.22;;;16.30;82.23
63439;BME280;49567;48.958;8.294;2023-05-10T00:39:27;99804.50;;;16.34;82.17
63439;BME280;49567;48.958;8.294;2023-05-10T00:41:53;99817.59;;;16.37;82.07
63439;BME280;49567;48.958;8.294;2023-05-10T00:44:18;99810.56;;;16.31;82.25
63439;BME280;49567;48.958;8.294;2023-05-10T00:46:44;99807.78;;;16.36;82.58
63439;BME280;49567;48.958;8.294;2023-05-10T00:49:10;99809.91;;;16.39;82.16
63439;BME280;49567;48.958;8.294;2023-05-10T00:51:36;99804.66;;;16.43;82.03
63439;BME280;49567;48.958;8.294;2023-05-10T00:54:02;99805.38;;;16.48;81.95
63439;BME280;49567;48.958;8.294;2023-05-10T00:56:28;99808.09;;;16.48;81.86
63439;BME280;49567;48.958;8.294;2023-05-10T00:58:54;99803.03;;;16.42;82.27
63439;BME280;49567;48.958;8.294;2023-05-10T01:01:20;99806.34;;;16.39;82.20
63439;BME280;49567;48.958;8.294;2023-05-10T01:03:46;99804.00;;;16.32;82.62
63439;BME280;49567;48.958;8.294;2023-05-10T01:06:12;99808.28;;;16.38;82.42
63439;BME280;49567;48.958;8.294;2023-05-10T01:08:37;99802.09;;;16.33;82.49
63439;BME280;49567;48.958;8.294;2023-05-10T01:11:03;99805.53;;;16.38;82.61
63439;BME280;49567;48.958;8.294;2023-05-10T01:15:57;99805.63;;;16.33;82.39
63439;BME280;49567;48.958;8.294;2023-05-10T01:18:24;99807.13;;;16.26;82.73
63439;BME280;49567;48.958;8.294;2023-05-10T01:21:04;99800.75;;;16.30;82.89
63439;BME280;49567;48.958;8.294;2023-05-10T01:26:19;99796.63;;;16.33;82.25
63439;BME280;49567;48.958;8.294;2023-05-10T01:31:25;99797.81;;;16.27;82.47
63439;BME280;49567;48.958;8.294;2023-05-10T01:34:09;99796.41;;;16.29;82.53
63439;BME280;49567;48.958;8.294;2023-05-10T01:37:05;99798.00;;;16.30;82.51
63439;BME280;49567;48.958;8.294;2023-05-10T01:39:47;99798.00;;;16.30;82.62
63439;BME280;49567;48.958;8.294;2023-05-10T01:42:17;99798.81;;;16.31;82.72
63439;BME280;49567;48.958;8.294;2023-05-10T01:44:51;99799.75;;;16.26;82.90
63439;BME280;49567;48.958;8.294;2023-05-10T01:47:28;99801.56;;;16.31;82.68
63439;BME280;49567;48.958;8.294;2023-05-10T01:50:00;99805.03;;;16.36;82.72
63439;BME280;49567;48.958;8.294;2023-05-10T01:52:32;99799.75;;;16.26;83.02
63439;BME280;49567;48.958;8.294;2023-05-10T01:55:04;99805.03;;;16.36;82.67
63439;BME280;49567;48.958;8.294;2023-05-10T01:57:34;99798.81;;;16.49;81.90
63439;BME280;49567;48.958;8.294;2023-05-10T02:00:02;99808.00;;;16.53;81.54
63439;BME280;49567;48.958;8.294;2023-05-10T02:02:30;99810.03;;;16.48;81.80
63439;BME280;49567;48.958;8.294;2023-05-10T02:04:58;99804.22;;;16.36;82.44
63439;BME280;49567;48.958;8.294;2023-05-10T02:07:24;99801.41;;;16.41;82.32
63439;BME280;49567;48.958;8.294;2023-05-10T02:09:52;99800.78;;;16.44;82.13
63439;BME280;49567;48.958;8.294;2023-05-10T02:12:17;99805.03;;;16.36;82.38
63439;BME280;49567;48.958;8.294;2023-05-10T02:14:44;99811.63;;;16.35;82.53
63439;BME280;49567;48.958;8.294;2023-05-10T02:17:11;99816.88;;;16.32;82.50
63439;BME280;49567;48.958;8.294;2023-05-10T02:19:38;99813.09;;;16.28;82.85
63439;BME280;49567;48.958;8.294;2023-05-10T02:22:06;99815.53;;;16.29;82.60
63439;BME280;49567;48.958;8.294;2023-05-10T02:24:33;99822.94;;;16.29;82.91
63439;BME280;49567;48.958;8.294;2023-05-10T02:27:00;99830.25;;;16.33;82.52
63439;BME280;49567;48.958;8.294;2023-05-10T02:29:28;99822.56;;;16.35;82.59
63439;BME280;49567;48.958;8.294;2023-05-10T02:31:54;99825.88;;;16.32;82.59
63439;BME280;49567;48.958;8.294;2023-05-10T02:34:25;99828.91;;;16.31;82.40
63439;BME280;49567;48.958;8.294;2023-05-10T02:36:52;99826.16;;;16.31;82.54
63439;BME280;49567;48.958;8.294;2023-05-10T02:39:18;99828.63;;;16.32;82.51
63439;BME280;49567;48.958;8.294;2023-05-10T02:41:46;99829.44;;;16.33;82.46
63439;BME280;49567;48.958;8.294;2023-05-10T02:44:14;99822.44;;;16.27;82.64
63439;BME280;49567;48.958;8.294;2023-05-10T02:46:40;99836.81;;;16.32;82.38
63439;BME280;49567;48.958;8.294;2023-05-10T02:49:06;99821.06;;;16.24;82.53
63439;BME280;49567;48.958;8.294;2023-05-10T02:51:32;99825.72;;;16.24;82.39
63439;BME280;49567;48.958;8.294;2023-05-10T02:54:27;99825.16;;;16.08;82.88
63439;BME280;49567;48.958;8.294;2023-05-10T02:56:57;99827.38;;;16.06;82.99
63439;BME280;49567;48.958;8.294;2023-05-10T02:59:24;99824.47;;;15.97;83.32
63439;BME280;49567;48.958;8.294;2023-05-10T03:01:49;99831.22;;;16.05;83.14
63439;BME280;49567;48.958;8.294;2023-05-10T03:04:14;99821.38;;;16.04;82.74
63439;BME280;49567;48.958;8.294;2023-05-10T03:06:41;99821.47;;;15.99;82.70
63439;BME280;49567;48.958;8.294;2023-05-10T03:09:07;99824.25;;;15.94;82.86
63439;BME280;49567;48.958;8.294;2023-05-10T03:11:47;99824.44;;;15.84;83.19
63439;BME280;49567;48.958;8.294;2023-05-10T03:14:44;99831.22;;;15.86;83.27
63439;BME280;49567;48.958;8.294;2023-05-10T03:17:15;99829.38;;;15.82;83.29
63439;BME280;49567;48.958;8.294;2023-05-10T03:19:55;99823.66;;;15.78;83.08
63439;BME280;49567;48.958;8.294;2023-05-10T03:22:25;99831.06;;;15.78;83.52
63439;BME280;49567;48.958;8.294;2023-05-10T03:24:53;99833.66;;;15.88;82.92
63439;BME280;49567;48.958;8.294;2023-05-10T03:27:22;99836.47;;;15.83;83.10
63439;BME280;49567;48.958;8.294;2023-05-10T03:29:48;99832.41;;;15.80;82.93
63439;BME280;49567;48.958;8.294;2023-05-10T03:32:16;99843.63;;;15.79;83.18
63439;BME280;49567;48.958;8.294;2023-05-10T03:34:41;99839.31;;;15.73;83.21
63439;BME280;49567;48.958;8.294;2023-05-10T03:37:08;99850.63;;;15.66;83.57
63439;BME280;49567;48.958;8.294;2023-05-10T03:39:33;99849.22;;;15.69;83.42
63439;BME280;49567;48.958;8.294;2023-05-10T03:41:58;99845.84;;;15.77;82.79
63439;BME280;49567;48.958;8.294;2023-05-10T03:44:23;99855.41;;;15.74;82.66
63439;BME280;49567;48.958;8.294;2023-05-10T03:46:49;99859.53;;;15.72;83.08
63439;BME280;49567;48.958;8.294;2023-05-10T03:49:14;99854.84;;;15.77;83.03
63439;BME280;49567;48.958;8.294;2023-05-10T03:51:39;99856.91;;;15.85;82.72
63439;BME280;49567;48.958;8.294;2023-05-10T03:54:04;99861.28;;;15.86;82.46
63439;BME280;49567;48.958;8.294;2023-05-10T03:56:30;99867.16;;;15.75;82.90
63439;BME280;49567;48.958;8.294;2023-05-10T03:58:55;99869.38;;;15.73;83.34
63439;BME280;49567;48.958;8.294;2023-05-10T04:01:20;99868.88;;;15.71;83.51
63439;BME280;49567;48.958;8.294;2023-05-10T04:03:46;99863.56;;;15.79;83.26
63439;BME280;49567;48.958;8.294;2023-05-10T04:06:11;99867.56;;;15.87;82.95
63439;BME280;49567;48.958;8.294;2023-05-10T04:08:37;99864.28;;;15.85;82.79
63439;BME280;49567;48.958;8.294;2023-05-10T04:11:10;99862.97;;;15.82;82.90
63439;BME280;49567;48.958;8.294;2023-05-10T04:13:36;99868.72;;;15.81;83.21
63439;BME280;49567;48.958;8.294;2023-05-10T04:16:02;99866.75;;;15.86;83.02
63439;BME280;49567;48.958;8.294;2023-05-10T04:18:27;99866.16;;;15.89;82.92
63439;BME280;49567;48.958;8.294;2023-05-10T04:20:52;99866.38;;;15.93;83.01
63439;BME280;49567;48.958;8.294;2023-05-10T04:23:18;99875.03;;;16.00;82.39
63439;BME280;49567;48.958;8.294;2023-05-10T04:25:43;99874.72;;;16.01;82.36
63439;BME280;49567;48.958;8.294;2023-05-10T04:28:08;99871.75;;;15.98;82.76
63439;BME280;49567;48.958;8.294;2023-05-10T04:30:34;99881.00;;;16.02;82.82
63439;BME280;49567;48.958;8.294;2023-05-10T04:32:59;99880.34;;;16.10;82.45
63439;BME280;49567;48.958;8.294;2023-05-10T04:35:25;99879.69;;;16.18;81.82
63439;BME280;49567;48.958;8.294;2023-05-10T04:37:51;99879.75;;;16.13;82.14
63439;BME280;49567;48.958;8.294;2023-05-10T04:40:16;99882.72;;;16.17;82.08
63439;BME280;49567;48.958;8.294;2023-05-10T04:42:43;99884.03;;;16.19;81.81
63439;BME280;49567;48.958;8.294;2023-05-10T04:45:09;99880.78;;;16.17;82.12
63439;BME280;49567;48.958;8.294;2023-05-10T04:47:34;99880.88;;;16.12;82.37
63439;BME280;49567;48.958;8.294;2023-05-10T04:50:00;99882.56;;;16.08;82.37
63439;BME280;49567;48.958;8.294;2023-05-10T04:52:25;99883.38;;;16.08;82.45
63439;BME280;49567;48.958;8.294;2023-05-10T04:54:51;99887.38;;;16.16;82.06
63439;BME280;49567;48.958;8.294;2023-05-10T04:57:16;99882.72;;;16.17;81.83
63439;BME280;49567;48.958;8.294;2023-05-10T04:59:41;99886.63;;;16.10;82.31
63439;BME280;49567;48.958;8.294;2023-05-10T05:02:07;99883.97;;;16.05;82.91
63439;BME280;49567;48.958;8.294;2023-05-10T05:04:32;99884.19;;;15.90;83.15
63439;BME280;49567;48.958;8.294;2023-05-10T05:06:58;99880.41;;;15.86;83.40
63439;BME280;49567;48.958;8.294;2023-05-10T05:09:23;99879.81;;;15.89;83.76
63439;BME280;49567;48.958;8.294;2023-05-10T05:11:48;99890.38;;;15.96;83.37
63439;BME280;49567;48.958;8.294;2023-05-10T05:14:13;99878.88;;;15.99;83.34
63439;BME280;49567;48.958;8.294;2023-05-10T05:16:39;99879.69;;;15.99;83.01
63439;BME280;49567;48.958;8.294;2023-05-10T05:19:04;99885.88;;;16.05;83.19
63439;BME280;49567;48.958;8.294;2023-05-10T05:21:29;99889.34;;;16.10;82.54
63439;BME280;49567;48.958;8.294;2023-05-10T05:23:55;99889.72;;;16.04;82.90
63439;BME280;49567;48.958;8.294;2023-05-10T05:26:20;99884.84;;;16.01;83.01
63439;BME280;49567;48.958;8.294;2023-05-10T05:28:46;99890.63;;;15.99;83.03
63439;BME280;49567;48.958;8.294;2023-05-10T05:31:13;99887.50;;;16.06;82.75
63439;BME280;49567;48.958;8.294;2023-05-10T05:33:38;99887.50;;;16.06;82.67
63439;BME280;49567;48.958;8.294;2023-05-10T05:36:04;99889.94;;;16.07;82.68
63439;BME280;49567;48.958;8.294;2023-05-10T05:38:30;99894.03;;;16.10;82.36
63439;BME280;49567;48.958;8.294;2023-05-10T05:40:56;99900.28;;;16.10;81.99
63439;BME280;49567;48.958;8.294;2023-05-10T05:43:27;99909.25;;;16.16;81.47
63439;BME280;49567;48.958;8.294;2023-05-10T05:45:53;99899.63;;;16.19;81.69
63439;BME280;49567;48.958;8.294;2023-05-10T05:48:19;99902.59;;;16.22;81.35
63439;BME280;49567;48.958;8.294;2023-05-10T05:50:44;99910.94;;;16.12;81.40
63439;BME280;49567;48.958;8.294;2023-05-10T05:53:10;99918.03;;;16.13;81.49
63439;BME280;49567;48.958;8.294;2023-05-10T05:55:36;99924.38;;;16.08;81.40
63439;BME280;49567;48.958;8.294;2023-05-10T05:58:01;99932.56;;;16.08;81.63
63439;BME280;49567;48.958;8.294;2023-05-10T06:00:26;99927.25;;;16.17;81.06
63439;BME280;49567;48.958;8.294;2023-05-10T06:02:52;99932.56;;;16.27;80.98
63439;BME280;49567;48.958;8.294;2023-05-10T06:05:17;99941.38;;;16.24;80.72
63439;BME280;49567;48.958;8.294;2023-05-10T06:07:42;99941.59;;;16.28;80.60
63439;BME280;49567;48.958;8.294;2023-05-10T06:10:08;99946.78;;;16.29;80.72
63439;BME280;49567;48.958;8.294;2023-05-10T06:12:34;99948.41;;;16.30;80.74
63439;BME280;49567;48.958;8.294;2023-05-10T06:14:59;99943.91;;;16.39;80.32
63439;BME280;49567;48.958;8.294;2023-05-10T06:17:25;99948.03;;;16.37;80.62
63439;BME280;49567;48.958;8.294;2023-05-10T06:19:50;99950.56;;;16.33;80.94
63439;BME280;49567;48.958;8.294;2023-05-10T06:22:15;99955.22;;;16.33;81.50
63439;BME280;49567;48.958;8.294;2023-05-10T06:24:41;99958.22;;;16.50;80.70
63439;BME280;49567;48.958;8.294;2023-05-10T06:27:06;99958.72;;;16.57;80.53
63439;BME280;49567;48.958;8.294;2023-05-10T06:29:32;99952.63;;;16.60;80.45
63439;BME280;49567;48.958;8.294;2023-05-10T06:31:57;99948.81;;;16.61;80.65
63439;BME280;49567;48.958;8.294;2023-05-10T06:34:23;99953.69;;;16.64;80.66
63439;BME280;49567;48.958;8.294;2023-05-10T06:36:49;99950.06;;;16.69;80.43
63439;BME280;49567;48.958;8.294;2023-05-10T06:39:14;99953.19;;;16.62;80.37
63439;BME280;49567;48.958;8.294;2023-05-10T06:41:39;99961.16;;;16.58;80.75
63439;BME280;49567;48.958;8.294;2023-05-10T06:44:04;99960.78;;;16.65;80.56
63439;BME280;49567;48.958;8.294;2023-05-10T06:46:30;99959.69;;;16.66;80.31
63439;BME280;49567;48.958;8.294;2023-05-10T06:48:55;99957.69;;;16.72;80.30
63439;BME280;49567;48.958;8.294;2023-05-10T06:51:20;99964.09;;;16.81;79.86
63439;BME280;49567;48.958;8.294;2023-05-10T06:53:46;99967.19;;;16.93;79.40
63439;BME280;49567;48.958;8.294;2023-05-10T06:56:11;99974.28;;;16.94;79.78
63439;BME280;49567;48.958;8.294;2023-05-10T06:58:37;99981.00;;;17.01;79.43
63439;BME280;49567;48.958;8.294;2023-05-10T07:01:03;99975.88;;;17.13;78.70
63439;BME280;49567;48.958;8.294;2023-05-10T07:03:30;99975.28;;;17.17;78.21
63439;BME280;49567;48.958;8.294;2023-05-10T07:06:02;99977.56;;;17.09;78.61
63439;BME280;49567;48.958;8.294;2023-05-10T07:08:38;99975.22;;;17.03;78.50
63439;BME280;49567;48.958;8.294;2023-05-10T07:11:04;99973.63;;;17.02;77.60
63439;BME280;49567;48.958;8.294;2023-05-10T07:13:32;99983.91;;;16.91;78.14
63439;BME280;49567;48.958;8.294;2023-05-10T07:15:59;99983.59;;;16.93;77.94
63439;BME280;49567;48.958;8.294;2023-05-10T07:18:25;99985.53;;;16.92;77.48
63439;BME280;49567;48.958;8.294;2023-05-10T07:20:51;99983.22;;;16.99;77.32
63439;BME280;49567;48.958;8.294;2023-05-10T07:23:16;99986.91;;;17.08;76.29
63439;BME280;49567;48.958;8.294;2023-05-10T07:25:47;99983.00;;;16.96;76.10
63439;BME280;49567;48.958;8.294;2023-05-10T07:28:13;99991.19;;;16.82;76.43
63439;BME280;49567;48.958;8.294;2023-05-10T07:30:39;99982.50;;;16.94;76.47
63439;BME280;49567;48.958;8.294;2023-05-10T07:33:04;99987.81;;;17.04;76.28
63439;BME280;49567;48.958;8.294;2023-05-10T07:35:29;99988.97;;;17.17;75.66
63439;BME280;49567;48.958;8.294;2023-05-10T07:37:54;99988.31;;;17.38;74.83
63439;BME280;49567;48.958;8.294;2023-05-10T07:40:20;99995.63;;;17.43;74.25
63439;BME280;49567;48.958;8.294;2023-05-10T07:42:45;99995.94;;;17.41;74.15
63439;BME280;49567;48.958;8.294;2023-05-10T07:45:11;100002.41;;;17.45;74.10
63439;BME280;49567;48.958;8.294;2023-05-10T07:47:36;100002.41;;;17.45;74.19
63439;BME280;49567;48.958;8.294;2023-05-10T07:50:01;100000.38;;;17.37;74.46
63439;BME280;49567;48.958;8.294;2023-05-10T07:52:27;100003.63;;;17.39;74.16
63439;BME280;49567;48.958;8.294;2023-05-10T07:54:52;100006.97;;;17.36;73.90
63439;BME280;49567;48.958;8.294;2023-05-10T07:57:18;100003.97;;;17.19;74.33
63439;BME280;49567;48.958;8.294;2023-05-10T07:59:43;100009.03;;;17.12;74.84
63439;BME280;49567;48.958;8.294;2023-05-10T08:02:09;100004.75;;;17.06;75.37
63439;BME280;49567;48.958;8.294;2023-05-10T08:04:35;100001.03;;;17.16;75.07
63439;BME280;49567;48.958;8.294;2023-05-10T08:07:00;100014.47;;;17.31;74.72
63439;BME280;49567;48.958;8.294;2023-05-10T08:09:25;100013.38;;;17.45;74.57
63439;BME280;49567;48.958;8.294;2023-05-10T08:11:50;100014.47;;;17.63;73.10
63439;BME280;49567;48.958;8.294;2023-05-10T08:14:20;100009.31;;;17.75;72.38
63439;BME280;49567;48.958;8.294;2023-05-10T08:16:45;100012.47;;;17.82;71.95
63439;BME280;49567;48.958;8.294;2023-05-10T08:19:10;100018.34;;;17.89;71.84
63439;BME280;49567;48.958;8.294;2023-05-10T08:21:36;100020.00;;;17.90;70.76
63439;BME280;49567;48.958;8.294;2023-05-10T08:24:01;100020.69;;;17.82;71.18
63439;BME280;49567;48.958;8.294;2023-05-10T08:26:26;100018.88;;;17.78;71.40
63439;BME280;49567;48.958;8.294;2023-05-10T08:28:52;100019.06;;;17.81;71.11
63439;BME280;49567;48.958;8.294;2023-05-10T08:31:17;100018.47;;;17.84;70.44
63439;BME280;49567;48.958;8.294;2023-05-10T08:33:43;100018.97;;;17.86;69.91
63439;BME280;49567;48.958;8.294;2023-05-10T08:36:08;100016.84;;;17.83;70.13
63439;BME280;49567;48.958;8.294;2023-05-10T08:38:34;100021.00;;;18.08;69.74
63439;BME280;49567;48.958;8.294;2023-05-10T08:41:01;100025.88;;;18.25;69.08
63439;BME280;49567;48.958;8.294;2023-05-10T08:43:28;100014.59;;;18.40;68.77
63439;BME280;49567;48.958;8.294;2023-05-10T08:45:56;100014.16;;;18.46;68.65
63439;BME280;49567;48.958;8.294;2023-05-10T08:48:24;100022.63;;;18.50;68.23
63439;BME280;49567;48.958;8.294;2023-05-10T08:50:52;100018.63;;;18.70;67.17
63439;BME280;49567;48.958;8.294;2023-05-10T08:53:18;100030.25;;;18.53;67.70
63439;BME280;49567;48.958;8.294;2023-05-10T08:55:44;100035.22;;;18.37;67.51
63439;BME280;49567;48.958;8.294;2023-05-10T08:58:09;100030.88;;;18.50;66.80
63439;BME280;49567;48.958;8.294;2023-05-10T09:00:36;100036.06;;;18.24;66.80
63439;BME280;49567;48.958;8.294;2023-05-10T09:03:02;100032.16;;;18.11;67.46
63439;BME280;49567;48.958;8.294;2023-05-10T09:05:28;100039.19;;;18.04;67.90
63439;BME280;49567;48.958;8.294;2023-05-10T09:07:54;100040.50;;;18.06;68.16
63439;BME280;49567;48.958;8.294;2023-05-10T09:10:20;100049.94;;;17.87;67.72
63439;BME280;49567;48.958;8.294;2023-05-10T09:12:45;100047.56;;;17.67;66.66
63439;BME280;49567;48.958;8.294;2023-05-10T09:15:11;100051.19;;;17.62;66.04
63439;BME280;49567;48.958;8.294;2023-05-10T09:17:38;100055.16;;;17.56;66.19
63439;BME280;49567;48.958;8.294;2023-05-10T09:20:05;100055.72;;;17.53;67.10
63439;BME280;49567;48.958;8.294;2023-05-10T09:22:31;100060.47;;;17.47;67.02
63439;BME280;49567;48.958;8.294;2023-05-10T09:25:09;100049.09;;;17.40;67.64
63439;BME280;49567;48.958;8.294;2023-05-10T09:27:36;100054.34;;;17.37;67.66
63439;BME280;49567;48.958;8.294;2023-05-10T09:30:03;100062.19;;;17.43;67.30
63439;BME280;49567;48.958;8.294;2023-05-10T09:32:38;100055.50;;;17.49;67.20
63439;BME280;49567;48.958;8.294;2023-05-10T09:35:11;100064.69;;;17.58;67.13
63439;BME280;49567;48.958;8.294;2023-05-10T09:37:41;100068.81;;;17.88;66.90
63439;BME280;49567;48.958;8.294;2023-05-10T09:40:08;100058.28;;;18.09;65.98
63439;BME280;49567;48.958;8.294;2023-05-10T09:42:36;100061.22;;;18.26;65.86
63439;BME280;49567;48.958;8.294;2023-05-10T09:45:03;100064.19;;;18.57;64.56
63439;BME280;49567;48.958;8.294;2023-05-10T09:47:28;100066.88;;;18.84;63.35
63439;BME280;49567;48.958;8.294;2023-05-10T09:49:54;100070.53;;;18.93;63.11
63439;BME280;49567;48.958;8.294;2023-05-10T09:52:22;100075.06;;;18.98;61.80
63439;BME280;49567;48.958;8.294;2023-05-10T09:54:54;100074.53;;;18.74;61.17
63439;BME280;49567;48.958;8.294;2023-05-10T09:57:21;100074.88;;;18.94;60.64
63439;BME280;49567;48.958;8.294;2023-05-10T09:59:47;100071.13;;;19.26;60.29
63439;BME280;49567;48.958;8.294;2023-05-10T10:02:13;100067.34;;;19.89;58.85
63439;BME280;49567;48.958;8.294;2023-05-10T10:04:39;100074.53;;;19.45;59.41
63439;BME280;49567;48.958;8.294;2023-05-10T10:07:05;100075.81;;;19.26;60.55
63439;BME280;49567;48.958;8.294;2023-05-10T10:09:32;100086.97;;;19.29;60.45
63439;BME280;49567;48.958;8.294;2023-05-10T10:11:59;100090.06;;;19.50;58.77
63439;BME280;49567;48.958;8.294;2023-05-10T10:14:25;100083.94;;;19.75;58.23
63439;BME280;49567;48.958;8.294;2023-05-10T10:16:51;100086.50;;;20.42;56.32
63439;BME280;49567;48.958;8.294;2023-05-10T10:19:18;100086.38;;;20.38;55.07
63439;BME280;49567;48.958;8.294;2023-05-10T10:21:43;100088.50;;;20.50;54.75
63439;BME280;49567;48.958;8.294;2023-05-10T10:24:09;100080.22;;;21.32;53.58
63439;BME280;49567;48.958;8.294;2023-05-10T10:26:35;100076.09;;;21.72;52.21
63439;BME280;49567;48.958;8.294;2023-05-10T10:29:36;100085.56;;;21.20;52.34
63439;BME280;49567;48.958;8.294;2023-05-10T10:32:28;100082.41;;;20.70;53.65
63439;BME280;49567;48.958;8.294;2023-05-10T10:34:55;100082.41;;;20.79;53.02
63439;BME280;49567;48.958;8.294;2023-05-10T10:37:21;100079.13;;;20.59;53.55
63439;BME280;49567;48.958;8.294;2023-05-10T10:39:48;100078.13;;;20.38;54.77
63439;BME280;49567;48.958;8.294;2023-05-10T10:42:13;100086.34;;;19.99;54.35
63439;BME280;49567;48.958;8.294;2023-05-10T10:44:38;100080.94;;;19.85;54.71
63439;BME280;49567;48.958;8.294;2023-05-10T10:49:42;100072.81;;;20.50;53.59
63439;BME280;49567;48.958;8.294;2023-05-10T10:55:19;100083.56;;;20.78;52.23
63439;BME280;49567;48.958;8.294;2023-05-10T11:02:56;100091.78;;;19.90;53.65
63439;BME280;49567;48.958;8.294;2023-05-10T11:07:57;100094.84;;;19.22;55.27
63439;BME280;49567;48.958;8.294;2023-05-10T11:10:23;100087.66;;;19.12;55.52
63439;BME280;49567;48.958;8.294;2023-05-10T11:13:02;100091.09;;;19.18;55.73
63439;BME280;49567;48.958;8.294;2023-05-10T11:15:36;100082.06;;;19.04;55.87
63439;BME280;49567;48.958;8.294;2023-05-10T11:18:29;100088.34;;;19.18;56.19
63439;BME280;49567;48.958;8.294;2023-05-10T11:20:59;100087.41;;;19.23;56.76
63439;BME280;49567;48.958;8.294;2023-05-10T11:26:08;100082.66;;;19.37;56.48
63439;BME280;49567;48.958;8.294;2023-05-10T11:28:40;100080.16;;;19.62;54.98
63439;BME280;49567;48.958;8.294;2023-05-10T11:31:06;100078.94;;;19.77;54.40
63439;BME280;49567;48.958;8.294;2023-05-10T11:33:42;100084.94;;;19.57;53.00
63439;BME280;49567;48.958;8.294;2023-05-10T11:36:11;100080.31;;;19.44;53.27
63439;BME280;49567;48.958;8.294;2023-05-10T11:38:36;100083.34;;;19.56;52.64
63439;BME280;49567;48.958;8.294;2023-05-10T11:41:01;100089.63;;;19.79;52.86
63439;BME280;49567;48.958;8.294;2023-05-10T11:43:27;100104.06;;;19.62;51.45
63439;BME280;49567;48.958;8.294;2023-05-10T11:45:55;100107.59;;;19.40;51.37
63439;BME280;49567;48.958;8.294;2023-05-10T11:48:21;100111.81;;;19.24;50.79
63439;BME280;49567;48.958;8.294;2023-05-10T11:50:49;100102.84;;;19.32;50.89
63439;BME280;49567;48.958;8.294;2023-05-10T11:53:14;100096.69;;;19.49;50.39
63439;BME280;49567;48.958;8.294;2023-05-10T11:55:39;100104.66;;;19.81;50.24
63439;BME280;49567;48.958;8.294;2023-05-10T11:58:05;100104.63;;;20.03;49.14
63439;BME280;49567;48.958;8.294;2023-05-10T12:00:30;100100.69;;;20.57;48.57
63439;BME280;49567;48.958;8.294;2023-05-10T12:02:56;100094.00;;;21.32;47.37
63439;BME280;49567;48.958;8.294;2023-05-10T12:05:22;100096.66;;;22.01;45.84
63439;BME280;49567;48.958;8.294;2023-05-10T12:07:48;100101.81;;;22.11;44.90
63439;BME280;49567;48.958;8.294;2023-05-10T12:10:13;100098.75;;;22.04;45.01
63439;BME280;49567;48.958;8.294;2023-05-10T12:12:48;100096.97;;;22.08;44.74
63439;BME280;49567;48.958;8.294;2023-05-10T12:15:18;100090.53;;;21.78;45.54
63439;BME280;49567;48.958;8.294;2023-05-10T12:17:45;100091.66;;;21.77;45.68
63439;BME280;49567;48.958;8.294;2023-05-10T12:22:39;100105.09;;;21.87;45.83
63439;BME280;49567;48.958;8.294;2023-05-10T12:25:06;100114.59;;;21.43;45.19
63439;BME280;49567;48.958;8.294;2023-05-10T12:27:32;100111.91;;;20.87;45.48
63439;BME280;49567;48.958;8.294;2023-05-10T12:29:59;100108.47;;;20.73;45.59
63439;BME280;49567;48.958;8.294;2023-05-10T12:32:39;100108.84;;;20.97;45.69
63439;BME280;49567;48.958;8.294;2023-05-10T12:35:05;100112.25;;;21.02;45.59
63439;BME280;49567;48.958;8.294;2023-05-10T12:37:30;100107.75;;;21.41;44.96
63439;BME280;49567;48.958;8.294;2023-05-10T12:39:56;100107.44;;;21.59;44.60
63439;BME280;49567;48.958;8.294;2023-05-10T12:42:21;100099.47;;;21.66;45.01
63439;BME280;49567;48.958;8.294;2023-05-10T12:44:46;100099.91;;;21.77;45.24
63439;BME280;49567;48.958;8.294;2023-05-10T12:47:11;100108.97;;;22.12;45.17
63439;BME280;49567;48.958;8.294;2023-05-10T12:49:37;100100.28;;;22.60;44.15
63439;BME280;49567;48.958;8.294;2023-05-10T12:52:02;100102.25;;;22.68;41.74
63439;BME280;49567;48.958;8.294;2023-05-10T12:54:27;100100.97;;;22.57;42.05
63439;BME280;49567;48.958;8.294;2023-05-10T12:56:53;100103.31;;;22.00;41.66
63439;BME280;49567;48.958;8.294;2023-05-10T12:59:18;100097.06;;;21.39;42.48
63439;BME280;49567;48.958;8.294;2023-05-10T13:01:43;100089.94;;;21.12;42.88
63439;BME280;49567;48.958;8.294;2023-05-10T13:04:08;100095.41;;;20.95;42.83
63439;BME280;49567;48.958;8.294;2023-05-10T13:06:34;100097.63;;;20.85;43.25
63439;BME280;49567;48.958;8.294;2023-05-10T13:09:00;100102.53;;;20.96;43.18
63439;BME280;49567;48.958;8.294;2023-05-10T13:11:25;100092.50;;;21.09;43.01
63439;BME280;49567;48.958;8.294;2023-05-10T13:13:51;100093.16;;;21.66;43.11
63439;BME280;49567;48.958;8.294;2023-05-10T13:16:16;100093.91;;;22.01;42.96
63439;BME280;49567;48.958;8.294;2023-05-10T13:18:41;100093.88;;;22.47;41.93
63439;BME280;49567;48.958;8.294;2023-05-10T13:21:07;100093.03;;;22.55;41.79